createdAt,value
2022-09-10T00:00:21.349Z,24.33
2022-09-10T00:01:25.265Z,24.31
2022-09-10T00:02:27.497Z,24.33
2022-09-10T00:03:29.767Z,24.33
2022-09-10T00:04:32.231Z,24.33
2022-09-10T00:05:42.351Z,24.32
2022-09-10T00:06:44.786Z,24.32
2022-09-10T00:07:46.894Z,24.33
2022-09-10T00:08:49.411Z,24.31
2022-09-10T00:09:52.204Z,24.31
2022-09-10T00:10:54.576Z,24.31
2022-09-10T00:11:56.799Z,24.31
2022-09-10T00:12:58.890Z,24.30
2022-09-10T00:14:02.256Z,24.31
2022-09-10T00:15:06.080Z,24.30
2022-09-10T00:16:10.446Z,24.29
2022-09-10T00:17:13.564Z,24.30
2022-09-10T00:18:17.137Z,24.30
2022-09-10T00:19:19.270Z,24.30
2022-09-10T00:20:22.447Z,24.29
2022-09-10T00:21:24.543Z,24.29
2022-09-10T00:22:26.742Z,24.29
2022-09-10T00:23:29.175Z,24.30
2022-09-10T00:24:31.266Z,24.29
2022-09-10T00:25:33.353Z,24.28
2022-09-10T00:26:36.738Z,24.28
2022-09-10T00:27:38.850Z,24.28
2022-09-10T00:28:41.035Z,24.28
2022-09-10T00:29:43.107Z,24.28
2022-09-10T00:30:47.294Z,24.27
2022-09-10T00:31:49.415Z,24.27
2022-09-10T00:32:51.615Z,24.27
2022-09-10T00:33:53.672Z,24.27
2022-09-10T00:34:56.789Z,24.28
2022-09-10T00:35:58.918Z,24.26
2022-09-10T00:37:01.123Z,24.27
2022-09-10T00:38:03.935Z,24.26
2022-09-10T00:40:26.225Z,24.37
2022-09-10T00:41:29.258Z,24.27
2022-09-10T00:42:31.381Z,24.27
2022-09-10T00:44:00.631Z,24.26
2022-09-10T00:45:03.724Z,24.26
2022-09-10T00:46:08.413Z,24.26
2022-09-10T00:47:22.949Z,24.24
2022-09-10T00:48:28.018Z,24.24
2022-09-10T00:49:36.928Z,24.23
2022-09-10T00:50:40.914Z,24.23
2022-09-10T00:51:44.206Z,24.23
2022-09-10T00:52:48.734Z,24.23
2022-09-10T00:53:51.057Z,24.23
2022-09-10T00:54:53.133Z,24.23
2022-09-10T00:55:57.237Z,24.23
2022-09-10T00:57:02.652Z,24.23
2022-09-10T00:58:05.875Z,24.22
2022-09-10T00:59:08.032Z,24.22
2022-09-10T01:00:12.109Z,24.22
2022-09-10T01:01:15.386Z,24.21
2022-09-10T01:02:18.274Z,24.22
2022-09-10T01:03:24.867Z,24.21
2022-09-10T01:04:25.613Z,24.22
2022-09-10T01:05:29.951Z,24.21
2022-09-10T01:06:32.863Z,24.21
2022-09-10T01:07:35.307Z,24.21
2022-09-10T01:08:38.253Z,24.21
2022-09-10T01:09:40.737Z,24.22
2022-09-10T01:11:02.210Z,24.21
2022-09-10T01:12:34.316Z,24.21
2022-09-10T01:13:54.274Z,24.21
2022-09-10T01:16:37.711Z,24.31
2022-09-10T01:17:55.955Z,24.19
2022-09-10T01:19:14.790Z,24.17
2022-09-10T01:20:55.578Z,24.16
2022-09-10T01:22:07.042Z,24.14
2022-09-10T01:23:46.988Z,24.14
2022-09-10T01:24:54.932Z,24.12
2022-09-10T01:27:43.054Z,24.19
2022-09-10T01:28:59.078Z,24.10
2022-09-10T01:30:10.478Z,24.07
2022-09-10T01:32:47.375Z,24.16
2022-09-10T01:33:53.394Z,24.06
2022-09-10T01:35:03.338Z,24.06
2022-09-10T01:36:08.648Z,24.05
2022-09-10T01:37:18.363Z,24.06
2022-09-10T01:38:24.837Z,24.07
2022-09-10T01:39:27.920Z,24.07
2022-09-10T01:40:31.590Z,24.08
2022-09-10T01:41:39.182Z,24.08
2022-09-10T01:42:42.509Z,24.09
2022-09-10T01:43:45.481Z,24.10
2022-09-10T01:44:49.699Z,24.10
2022-09-10T01:46:14.437Z,24.10
2022-09-10T01:47:23.202Z,24.12
2022-09-10T01:48:41.078Z,24.12
2022-09-10T01:50:05.436Z,24.12
2022-09-10T01:51:17.410Z,24.13
2022-09-10T01:52:40.290Z,24.12
2022-09-10T01:53:52.505Z,24.12
2022-09-10T01:55:07.129Z,24.10
2022-09-10T01:56:26.995Z,24.11
2022-09-10T01:58:50.289Z,24.19
2022-09-10T02:00:08.969Z,24.10
2022-09-10T02:03:05.788Z,24.18
2022-09-10T02:04:09.048Z,24.09
2022-09-10T02:05:12.026Z,24.07
2022-09-10T02:06:19.430Z,24.08
2022-09-10T02:07:23.560Z,24.08
2022-09-10T02:09:41.308Z,24.19
2022-09-10T02:10:52.658Z,24.09
2022-09-10T02:11:55.897Z,24.09
2022-09-10T02:13:14.942Z,24.10
2022-09-10T02:14:19.580Z,24.11
2022-09-10T02:15:40.165Z,24.10
2022-09-10T02:16:56.468Z,24.11
2022-09-10T02:17:59.236Z,24.12
2022-09-10T02:19:02.423Z,24.11
2022-09-10T02:21:20.267Z,24.23
2022-09-10T02:22:23.171Z,24.09
2022-09-10T02:24:41.275Z,24.23
2022-09-10T02:25:43.361Z,24.12
2022-09-10T02:26:45.634Z,24.12
2022-09-10T02:27:48.110Z,24.13
2022-09-10T02:28:50.678Z,24.14
2022-09-10T02:29:53.016Z,24.15
2022-09-10T02:30:56.245Z,24.15
2022-09-10T02:31:59.541Z,24.17
2022-09-10T02:33:01.746Z,24.17
2022-09-10T02:34:04.981Z,24.17
2022-09-10T02:35:07.844Z,24.18
2022-09-10T02:36:10.493Z,24.19
2022-09-10T02:37:12.894Z,24.19
2022-09-10T02:38:16.477Z,24.20
2022-09-10T02:39:21.080Z,24.20
2022-09-10T02:40:24.302Z,24.20
2022-09-10T02:41:26.891Z,24.22
2022-09-10T02:42:29.735Z,24.22
2022-09-10T02:43:31.811Z,24.21
2022-09-10T02:44:36.893Z,24.16
2022-09-10T02:45:39.737Z,24.16
2022-09-10T02:46:43.137Z,24.22
2022-09-10T02:47:45.812Z,24.22
2022-09-10T02:48:50.646Z,24.23
2022-09-10T02:49:52.802Z,24.22
2022-09-10T02:50:55.136Z,24.23
2022-09-10T02:51:57.419Z,24.23
2022-09-10T02:52:59.623Z,24.22
2022-09-10T02:54:02.298Z,24.22
2022-09-10T02:55:06.355Z,24.17
2022-09-10T02:56:09.387Z,24.17
2022-09-10T02:57:11.770Z,24.23
2022-09-10T02:58:14.742Z,24.22
2022-09-10T02:59:17.230Z,24.23
2022-09-10T03:00:20.267Z,24.23
2022-09-10T03:01:23.158Z,24.22
2022-09-10T03:02:27.237Z,24.23
2022-09-10T03:03:29.827Z,24.23
2022-09-10T03:04:32.510Z,24.23
2022-09-10T03:05:38.446Z,24.23
2022-09-10T03:06:40.877Z,24.22
2022-09-10T03:07:43.441Z,24.23
2022-09-10T03:08:46.020Z,24.22
2022-09-10T03:09:48.901Z,24.22
2022-09-10T03:10:51.206Z,24.21
2022-09-10T03:11:53.614Z,24.22
2022-09-10T03:12:56.172Z,24.22
2022-09-10T03:13:59.333Z,24.22
2022-09-10T03:15:02.026Z,24.23
2022-09-10T03:16:05.004Z,24.23
2022-09-10T03:17:08.487Z,24.23
2022-09-10T03:18:11.467Z,24.23
2022-09-10T03:19:14.875Z,24.24
2022-09-10T03:20:17.533Z,24.23
2022-09-10T03:21:22.057Z,24.24
2022-09-10T03:22:24.486Z,24.24
2022-09-10T03:23:27.698Z,24.24
2022-09-10T03:24:30.801Z,24.26
2022-09-10T03:25:33.080Z,24.24
2022-09-10T03:26:35.354Z,24.24
2022-09-10T03:27:39.362Z,24.25
2022-09-10T03:28:42.685Z,24.24
2022-09-10T03:29:45.836Z,24.26
2022-09-10T03:30:48.726Z,24.24
2022-09-10T03:31:52.209Z,24.26
2022-09-10T03:32:55.535Z,24.24
2022-09-10T03:33:57.997Z,24.26
2022-09-10T03:35:00.823Z,24.25
2022-09-10T03:36:04.240Z,24.25
2022-09-10T03:37:07.277Z,24.26
2022-09-10T03:38:10.243Z,24.27
2022-09-10T03:39:13.797Z,24.27
2022-09-10T03:40:17.008Z,24.26
2022-09-10T03:41:19.825Z,24.27
2022-09-10T03:42:22.709Z,24.28
2022-09-10T03:43:26.116Z,24.28
2022-09-10T03:44:28.477Z,24.28
2022-09-10T03:45:31.624Z,24.29
2022-09-10T03:46:34.974Z,24.28
2022-09-10T03:47:38.466Z,24.28
2022-09-10T03:48:40.912Z,24.28
2022-09-10T03:49:43.603Z,24.29
2022-09-10T03:50:46.510Z,24.27
2022-09-10T03:51:51.431Z,24.27
2022-09-10T03:52:54.149Z,24.27
2022-09-10T03:53:56.594Z,24.26
2022-09-10T03:54:59.898Z,24.27
2022-09-10T03:56:03.137Z,24.27
2022-09-10T03:57:05.432Z,24.27
2022-09-10T03:58:08.058Z,24.28
2022-09-10T03:59:10.279Z,24.27
2022-09-10T04:00:14.067Z,24.27
2022-09-10T04:01:21.586Z,24.28
2022-09-10T04:02:24.914Z,24.26
2022-09-10T04:03:27.907Z,24.27
2022-09-10T04:04:30.070Z,24.26
2022-09-10T04:05:32.796Z,24.27
2022-09-10T04:06:35.245Z,24.27
2022-09-10T04:07:37.481Z,24.27
2022-09-10T04:08:39.804Z,24.28
2022-09-10T04:09:44.535Z,24.27
2022-09-10T04:10:47.711Z,24.28
2022-09-10T04:11:51.034Z,24.29
2022-09-10T04:12:55.057Z,24.28
2022-09-10T04:13:58.134Z,24.29
2022-09-10T04:15:01.773Z,24.29
2022-09-10T04:16:05.789Z,24.29
2022-09-10T04:17:08.503Z,24.28
2022-09-10T04:18:11.224Z,24.28
2022-09-10T04:19:13.423Z,24.29
2022-09-10T04:20:19.464Z,24.27
2022-09-10T04:21:22.907Z,24.29
2022-09-10T04:22:25.594Z,24.29
2022-09-10T04:23:28.872Z,24.28
2022-09-10T04:24:31.100Z,24.28
2022-09-10T04:25:33.417Z,24.28
2022-09-10T04:26:35.688Z,24.28
2022-09-10T04:27:38.293Z,24.28
2022-09-10T04:28:40.822Z,24.28
2022-09-10T04:29:43.721Z,24.27
2022-09-10T04:30:47.367Z,24.27
2022-09-10T04:31:50.392Z,24.27
2022-09-10T04:32:54.308Z,24.27
2022-09-10T04:33:56.671Z,24.27
2022-09-10T04:35:00.777Z,24.27
2022-09-10T04:36:07.199Z,24.26
2022-09-10T04:37:12.717Z,24.27
2022-09-10T04:38:15.988Z,24.25
2022-09-10T04:39:20.018Z,24.25
2022-09-10T04:40:24.381Z,24.25
2022-09-10T04:41:26.555Z,24.25
2022-09-10T04:42:29.692Z,24.26
2022-09-10T04:43:31.871Z,24.24
2022-09-10T04:44:35.213Z,24.25
2022-09-10T04:45:37.723Z,24.24
2022-09-10T04:46:40.370Z,24.26
2022-09-10T04:47:44.881Z,24.25
2022-09-10T04:48:48.385Z,24.26
2022-09-10T04:49:52.384Z,24.25
2022-09-10T04:51:15.132Z,24.26
2022-09-10T04:52:00.991Z,24.26
2022-09-10T04:53:03.242Z,24.27
2022-09-10T04:54:06.084Z,24.27
2022-09-10T04:55:10.375Z,24.26
2022-09-10T04:56:13.836Z,24.27
2022-09-10T04:57:19.477Z,24.27
2022-09-10T04:58:22.161Z,24.27
2022-09-10T04:59:24.914Z,24.26
2022-09-10T05:00:27.392Z,24.28
2022-09-10T05:01:29.709Z,24.28
2022-09-10T05:02:32.030Z,24.27
2022-09-10T05:03:34.366Z,24.29
2022-09-10T05:04:37.237Z,24.29
2022-09-10T05:05:40.600Z,24.30
2022-09-10T05:06:43.501Z,24.30
2022-09-10T05:07:46.449Z,24.30
2022-09-10T05:08:49.206Z,24.31
2022-09-10T05:09:52.674Z,24.31
2022-09-10T05:10:55.598Z,24.31
2022-09-10T05:11:58.031Z,24.31
2022-09-10T05:13:01.001Z,24.32
2022-09-10T05:14:04.412Z,24.32
2022-09-10T05:15:09.623Z,24.32
2022-09-10T05:16:12.793Z,24.33
2022-09-10T05:17:15.803Z,24.33
2022-09-10T05:18:18.026Z,24.33
2022-09-10T05:19:21.209Z,24.33
2022-09-10T05:20:32.136Z,24.32
2022-09-10T05:21:35.907Z,24.33
2022-09-10T05:22:40.660Z,24.32
2022-09-10T05:23:42.741Z,24.31
2022-09-10T05:24:45.685Z,24.32
2022-09-10T05:25:48.490Z,24.31
2022-09-10T05:26:52.005Z,24.32
2022-09-10T05:27:55.129Z,24.32
2022-09-10T05:28:58.156Z,24.31
2022-09-10T05:30:00.786Z,24.33
2022-09-10T05:31:03.144Z,24.34
2022-09-10T05:32:05.731Z,24.35
2022-09-10T05:33:08.723Z,24.34
2022-09-10T05:34:12.047Z,24.34
2022-09-10T05:35:15.179Z,24.33
2022-09-10T05:36:19.537Z,24.34
2022-09-10T05:37:22.323Z,24.34
2022-09-10T05:38:25.270Z,24.34
2022-09-10T05:39:28.200Z,24.34
2022-09-10T05:40:30.567Z,24.35
2022-09-10T05:41:33.409Z,24.35
2022-09-10T05:42:35.835Z,24.35
2022-09-10T05:43:39.617Z,24.36
2022-09-10T05:44:41.828Z,24.35
2022-09-10T05:45:46.641Z,24.35
2022-09-10T05:48:04.018Z,24.46
2022-09-10T05:49:06.668Z,24.35
2022-09-10T05:50:09.444Z,24.33
2022-09-10T05:51:12.776Z,24.34
2022-09-10T05:52:16.233Z,24.34
2022-09-10T05:53:19.497Z,24.35
2022-09-10T05:54:23.521Z,24.33
2022-09-10T05:55:25.906Z,24.33
2022-09-10T05:56:28.561Z,24.35
2022-09-10T05:57:31.164Z,24.34
2022-09-10T05:58:33.458Z,24.35
2022-09-10T05:59:35.763Z,24.35
2022-09-10T06:00:38.793Z,24.36
2022-09-10T06:01:41.263Z,24.35
2022-09-10T06:02:43.522Z,24.34
2022-09-10T06:03:47.826Z,24.34
2022-09-10T06:04:50.007Z,24.34
2022-09-10T06:05:52.413Z,24.33
2022-09-10T06:06:59.406Z,24.33
2022-09-10T06:08:07.899Z,24.32
2022-09-10T06:09:08.330Z,24.32
2022-09-10T06:10:29.996Z,24.32
2022-09-10T06:11:33.164Z,24.31
2022-09-10T06:12:35.949Z,24.31
2022-09-10T06:13:38.583Z,24.31
2022-09-10T06:14:41.878Z,24.29
2022-09-10T06:15:44.052Z,24.30
2022-09-10T06:16:47.145Z,24.29
2022-09-10T06:17:49.854Z,24.29
2022-09-10T06:18:53.475Z,24.29
2022-09-10T06:19:57.088Z,24.28
2022-09-10T06:21:07.407Z,24.29
2022-09-10T06:22:10.532Z,24.28
2022-09-10T06:23:15.480Z,24.29
2022-09-10T06:24:18.371Z,24.28
2022-09-10T06:25:21.455Z,24.28
2022-09-10T06:26:24.202Z,24.28
2022-09-10T06:27:28.235Z,24.28
2022-09-10T06:28:32.016Z,24.28
2022-09-10T06:29:35.479Z,24.27
2022-09-10T06:30:38.366Z,24.27
2022-09-10T06:31:40.853Z,24.28
2022-09-10T06:32:43.699Z,24.28
2022-09-10T06:33:47.326Z,24.27
2022-09-10T06:34:51.324Z,24.28
2022-09-10T06:35:54.863Z,24.28
2022-09-10T06:36:58.585Z,24.28
2022-09-10T06:38:04.210Z,24.27
2022-09-10T06:39:09.796Z,24.27
2022-09-10T06:40:14.744Z,24.27
2022-09-10T06:41:18.483Z,24.28
2022-09-10T06:42:25.566Z,24.28
2022-09-10T06:43:49.738Z,24.28
2022-09-10T06:44:55.066Z,24.27
2022-09-10T06:46:04.986Z,24.28
2022-09-10T06:48:12.756Z,24.28
2022-09-10T06:48:47.807Z,24.23
2022-09-10T06:49:35.670Z,24.23
2022-09-10T06:50:39.831Z,24.27
2022-09-10T06:51:43.053Z,24.27
2022-09-10T06:52:46.021Z,24.27
2022-09-10T06:53:49.792Z,24.26
2022-09-10T06:54:54.044Z,24.27
2022-09-10T06:56:00.386Z,24.27
2022-09-10T06:57:04.509Z,24.27
2022-09-10T06:58:07.942Z,24.28
2022-09-10T06:59:13.301Z,24.27
2022-09-10T07:00:19.310Z,24.27
2022-09-10T07:01:23.512Z,24.26
2022-09-10T07:02:27.624Z,24.23
2022-09-10T07:03:30.969Z,24.20
2022-09-10T07:04:33.949Z,24.16
2022-09-10T07:05:37.028Z,24.14
2022-09-10T07:06:39.552Z,24.13
2022-09-10T07:07:43.598Z,24.11
2022-09-10T07:08:47.983Z,24.08
2022-09-10T07:09:51.209Z,24.06
2022-09-10T07:10:57.939Z,24.06
2022-09-10T07:12:01.327Z,24.02
2022-09-10T07:13:05.732Z,23.97
2022-09-10T07:14:12.574Z,23.94
2022-09-10T07:15:14.807Z,23.90
2022-09-10T07:16:23.872Z,23.86
2022-09-10T07:17:31.119Z,23.84
2022-09-10T07:18:30.281Z,23.82
2022-09-10T07:19:32.462Z,23.81
2022-09-10T07:20:35.100Z,23.78
2022-09-10T07:21:38.553Z,23.78
2022-09-10T07:22:42.900Z,23.77
2022-09-10T07:23:46.620Z,23.77
2022-09-10T07:24:49.487Z,23.77
2022-09-10T07:25:53.544Z,23.76
2022-09-10T07:27:00.896Z,23.75
2022-09-10T07:28:04.662Z,23.75
2022-09-10T07:29:09.250Z,23.75
2022-09-10T07:30:15.130Z,23.73
2022-09-10T07:31:19.370Z,23.72
2022-09-10T07:32:23.513Z,23.75
2022-09-10T07:33:27.540Z,23.77
2022-09-10T07:34:30.241Z,23.80
2022-09-10T07:35:35.587Z,23.83
2022-09-10T07:36:37.799Z,23.84
2022-09-10T07:37:40.935Z,23.85
2022-09-10T07:38:43.775Z,23.87
2022-09-10T07:39:46.031Z,23.90
2022-09-10T07:40:48.983Z,23.90
2022-09-10T07:41:53.230Z,23.93
2022-09-10T07:42:57.240Z,23.94
2022-09-10T07:44:01.129Z,23.96
2022-09-10T07:45:06.531Z,23.99
2022-09-10T07:46:11.713Z,23.95
2022-09-10T07:47:14.472Z,23.95
2022-09-10T07:48:17.208Z,24.00
2022-09-10T07:49:20.569Z,24.00
2022-09-10T07:50:27.241Z,24.01
2022-09-10T07:51:30.092Z,24.00
2022-09-10T07:52:35.208Z,23.99
2022-09-10T07:53:38.330Z,23.99
2022-09-10T07:54:41.134Z,24.00
2022-09-10T07:55:45.550Z,23.99
2022-09-10T07:56:49.581Z,24.00
2022-09-10T07:57:58.360Z,24.00
2022-09-10T07:59:00.575Z,24.00
2022-09-10T08:00:06.666Z,24.00
2022-09-10T08:01:11.556Z,23.98
2022-09-10T08:02:15.429Z,23.98
2022-09-10T08:03:19.502Z,23.98
2022-09-10T08:04:23.418Z,23.97
2022-09-10T08:05:26.336Z,23.96
2022-09-10T08:06:29.752Z,23.96
2022-09-10T08:07:32.077Z,23.96
2022-09-10T08:08:37.596Z,23.96
2022-09-10T08:09:41.297Z,23.95
2022-09-10T08:10:45.270Z,23.96
2022-09-10T08:11:50.319Z,23.97
2022-09-10T08:12:53.673Z,23.97
2022-09-10T08:13:56.704Z,23.96
2022-09-10T08:15:01.969Z,23.95
2022-09-10T08:17:21.616Z,24.05
2022-09-10T08:18:25.025Z,23.94
2022-09-10T08:19:27.667Z,23.94
2022-09-10T08:20:29.984Z,23.95
2022-09-10T08:21:32.950Z,23.94
2022-09-10T08:22:36.530Z,23.94
2022-09-10T08:23:40.812Z,23.92
2022-09-10T08:24:43.275Z,23.91
2022-09-10T08:25:50.016Z,23.93
2022-09-10T08:26:52.457Z,23.93
2022-09-10T08:27:55.479Z,23.93
2022-09-10T08:29:00.108Z,23.93
2022-09-10T08:30:03.687Z,23.93
2022-09-10T08:31:10.320Z,23.91
2022-09-10T08:32:15.988Z,23.94
2022-09-10T08:33:19.707Z,23.96
2022-09-10T08:34:21.983Z,23.96
2022-09-10T08:35:26.536Z,23.98
2022-09-10T08:36:29.081Z,23.99
2022-09-10T08:37:31.666Z,23.98
2022-09-10T08:38:37.792Z,23.98
2022-09-10T08:39:41.351Z,23.98
2022-09-10T08:40:44.988Z,23.98
2022-09-10T08:41:58.826Z,23.98
2022-09-10T08:43:01.450Z,23.98
2022-09-10T08:44:08.520Z,23.99
2022-09-10T08:46:53.145Z,24.11
2022-09-10T08:47:58.971Z,24.02
2022-09-10T08:49:17.464Z,24.01
2022-09-10T08:50:43.773Z,24.00
2022-09-10T08:51:52.344Z,23.99
2022-09-10T08:54:24.595Z,24.07
2022-09-10T08:57:01.400Z,24.10
2022-09-10T08:58:13.823Z,24.00
2022-09-10T08:59:37.230Z,24.03
2022-09-10T09:00:41.290Z,24.08
2022-09-10T09:01:49.629Z,24.10
2022-09-10T09:03:07.641Z,24.13
2022-09-10T09:05:30.642Z,24.29
2022-09-10T09:06:50.663Z,24.18
2022-09-10T09:07:55.920Z,24.15
2022-09-10T09:08:59.276Z,24.12
2022-09-10T09:10:05.253Z,24.11
2022-09-10T09:11:24.558Z,24.08
2022-09-10T09:12:39.530Z,24.07
2022-09-10T09:14:07.487Z,24.06
2022-09-10T09:15:19.697Z,24.02
2022-09-10T09:18:13.225Z,24.10
2022-09-10T09:19:34.217Z,23.96
2022-09-10T09:22:17.754Z,24.01
2022-09-10T09:23:29.334Z,23.87
2022-09-10T09:24:52.496Z,23.84
2022-09-10T09:26:02.913Z,23.82
2022-09-10T09:27:08.563Z,23.81
2022-09-10T09:29:34.476Z,23.88
2022-09-10T09:30:41.175Z,23.77
2022-09-10T09:31:46.868Z,23.76
2022-09-10T09:32:49.403Z,23.76
2022-09-10T09:33:54.528Z,23.76
2022-09-10T09:35:18.234Z,23.77
2022-09-10T09:36:26.113Z,23.78
2022-09-10T09:37:29.254Z,23.79
2022-09-10T09:38:36.143Z,23.79
2022-09-10T09:39:46.927Z,23.80
2022-09-10T09:42:31.121Z,23.94
2022-09-10T09:43:43.377Z,23.82
2022-09-10T09:44:57.271Z,23.82
2022-09-10T09:46:00.810Z,23.82
2022-09-10T09:47:03.862Z,23.81
2022-09-10T09:48:06.695Z,23.81
2022-09-10T09:49:10.946Z,23.81
2022-09-10T09:50:13.638Z,23.83
2022-09-10T09:51:17.211Z,23.82
2022-09-10T09:52:23.465Z,23.81
2022-09-10T09:53:26.990Z,23.82
2022-09-10T09:55:50.339Z,23.83
2022-09-10T09:56:54.113Z,23.84
2022-09-10T09:59:35.399Z,23.96
2022-09-10T10:00:39.432Z,23.85
2022-09-10T10:01:41.880Z,23.85
2022-09-10T10:02:44.291Z,23.86
2022-09-10T10:03:53.139Z,23.86
2022-09-10T10:06:13.911Z,23.97
2022-09-10T10:07:15.995Z,23.88
2022-09-10T10:09:41.980Z,23.99
2022-09-10T10:10:45.849Z,23.91
2022-09-10T10:13:13.360Z,24.02
2022-09-10T10:15:39.334Z,24.02
2022-09-10T10:16:42.361Z,23.92
2022-09-10T10:17:44.429Z,23.93
2022-09-10T10:18:47.536Z,23.94
2022-09-10T10:20:05.031Z,23.95
2022-09-10T10:21:29.755Z,23.94
2022-09-10T10:22:32.080Z,23.96
2022-09-10T10:23:36.820Z,23.96
2022-09-10T10:24:39.000Z,23.96
2022-09-10T10:25:42.367Z,23.97
2022-09-10T10:26:44.689Z,23.97
2022-09-10T10:27:47.807Z,23.97
2022-09-10T10:28:51.837Z,23.97
2022-09-10T10:29:59.597Z,23.98
2022-09-10T10:31:02.508Z,23.98
2022-09-10T10:32:05.973Z,23.99
2022-09-10T10:33:11.273Z,23.99
2022-09-10T10:34:33.911Z,24.01
2022-09-10T10:35:50.104Z,24.00
2022-09-10T10:37:15.238Z,24.01
2022-09-10T10:38:28.714Z,24.01
2022-09-10T10:39:51.029Z,24.01
2022-09-10T10:41:21.849Z,24.01
2022-09-10T10:42:36.711Z,24.01
2022-09-10T10:43:51.541Z,24.00
2022-09-10T10:45:14.228Z,24.00
2022-09-10T10:47:51.741Z,23.99
2022-09-10T10:49:06.445Z,23.98
2022-09-10T10:50:19.484Z,23.96
2022-09-10T10:51:49.974Z,23.95
2022-09-10T10:53:12.484Z,23.94
2022-09-10T10:54:30.673Z,23.91
2022-09-10T10:55:45.872Z,23.90
2022-09-10T10:57:09.502Z,23.89
2022-09-10T10:58:21.218Z,23.86
2022-09-10T10:59:36.753Z,23.88
2022-09-10T11:00:55.305Z,23.88
2022-09-10T11:02:05.287Z,23.88
2022-09-10T11:03:14.526Z,23.87
2022-09-10T11:04:20.433Z,23.87
2022-09-10T11:05:30.978Z,23.87
2022-09-10T11:06:38.016Z,23.85
2022-09-10T11:07:40.606Z,23.87
2022-09-10T11:08:48.225Z,23.88
2022-09-10T11:10:20.003Z,23.88
2022-09-10T11:11:26.000Z,23.89
2022-09-10T11:12:33.878Z,23.90
2022-09-10T11:13:42.147Z,23.90
2022-09-10T11:14:50.960Z,23.90
2022-09-10T11:17:37.748Z,24.01
2022-09-10T11:18:55.890Z,23.90
2022-09-10T11:20:27.405Z,23.89
2022-09-10T11:21:27.648Z,23.85
2022-09-10T11:22:33.830Z,23.81
2022-09-10T11:24:01.028Z,23.78
2022-09-10T11:25:12.955Z,23.76
2022-09-10T11:26:26.946Z,23.74
2022-09-10T11:29:17.476Z,23.80
2022-09-10T11:30:21.303Z,23.69
2022-09-10T11:31:31.990Z,23.68
2022-09-10T11:32:55.069Z,23.64
2022-09-10T11:34:01.069Z,23.64
2022-09-10T11:35:24.930Z,23.64
2022-09-10T11:36:46.543Z,23.62
2022-09-10T11:39:18.595Z,23.68
2022-09-10T11:41:57.282Z,23.71
2022-09-10T11:43:09.383Z,23.61
2022-09-10T11:44:36.597Z,23.60
2022-09-10T11:45:48.470Z,23.59
2022-09-10T11:46:57.530Z,23.57
2022-09-10T11:48:24.265Z,23.55
2022-09-10T11:49:49.937Z,23.55
2022-09-10T11:51:05.268Z,23.54
2022-09-10T11:52:08.736Z,23.54
2022-09-10T11:53:14.206Z,23.51
2022-09-10T11:55:59.405Z,23.60
2022-09-10T11:57:14.681Z,23.48
2022-09-10T12:00:05.435Z,23.50
2022-09-10T12:02:50.490Z,23.46
2022-09-10T12:05:23.183Z,23.45
2022-09-10T12:07:03.085Z,23.30
2022-09-10T12:08:27.449Z,23.27
2022-09-10T12:11:12.411Z,23.32
2022-09-10T12:13:41.246Z,23.29
2022-09-10T12:14:44.689Z,23.22
2022-09-10T12:15:53.607Z,23.23
2022-09-10T12:17:02.983Z,23.25
2022-09-10T12:18:14.961Z,23.30
2022-09-10T12:19:28.799Z,23.34
2022-09-10T12:20:37.262Z,23.40
2022-09-10T12:21:46.938Z,23.43
2022-09-10T12:22:51.865Z,23.45
2022-09-10T12:23:54.833Z,23.46
2022-09-10T12:25:01.978Z,23.48
2022-09-10T12:26:13.453Z,23.49
2022-09-10T12:27:19.591Z,23.52
2022-09-10T12:28:43.402Z,23.52
2022-09-10T12:29:47.332Z,23.52
2022-09-10T12:31:00.467Z,23.51
2022-09-10T12:32:15.685Z,23.49
2022-09-10T12:33:22.652Z,23.48
2022-09-10T12:34:25.065Z,23.47
2022-09-10T12:35:34.620Z,23.48
2022-09-10T12:36:40.892Z,23.48
2022-09-10T12:37:43.465Z,23.49
2022-09-10T12:38:57.656Z,23.52
2022-09-10T12:40:26.565Z,23.54
2022-09-10T12:41:33.861Z,23.57
2022-09-10T12:42:36.035Z,23.59
2022-09-10T12:43:43.315Z,23.60
2022-09-10T12:44:45.826Z,23.61
2022-09-10T12:46:05.492Z,23.63
2022-09-10T12:47:37.112Z,23.64
2022-09-10T12:48:51.510Z,23.67
2022-09-10T12:49:58.060Z,23.69
2022-09-10T12:51:01.410Z,23.68
2022-09-10T12:52:03.762Z,23.70
2022-09-10T12:53:16.333Z,23.69
2022-09-10T12:54:45.991Z,23.71
2022-09-10T12:57:26.009Z,23.82
2022-09-10T13:00:11.550Z,23.83
2022-09-10T13:01:27.925Z,23.74
2022-09-10T13:02:35.530Z,23.73
2022-09-10T13:03:41.437Z,23.73
2022-09-10T13:04:44.043Z,23.75
2022-09-10T13:05:51.528Z,23.75
2022-09-10T13:08:18.877Z,23.86
2022-09-10T13:09:23.144Z,23.78
2022-09-10T13:10:28.004Z,23.78
2022-09-10T13:11:33.006Z,23.78
2022-09-10T13:12:35.201Z,23.79
2022-09-10T13:13:50.441Z,23.80
2022-09-10T13:14:53.382Z,23.79
2022-09-10T13:15:55.641Z,23.81
2022-09-10T13:16:58.299Z,23.82
2022-09-10T13:18:10.655Z,23.84
2022-09-10T13:19:16.728Z,23.84
2022-09-10T13:20:27.158Z,23.86
2022-09-10T13:21:34.033Z,23.87
2022-09-10T13:22:56.514Z,23.86
2022-09-10T13:23:58.803Z,23.87
2022-09-10T13:25:03.176Z,23.88
2022-09-10T13:26:33.335Z,23.88
2022-09-10T13:27:38.147Z,23.89
2022-09-10T13:28:44.215Z,23.89
2022-09-10T13:29:56.548Z,23.88
2022-09-10T13:31:09.239Z,23.89
2022-09-10T13:32:34.631Z,23.89
2022-09-10T13:33:52.618Z,23.90
2022-09-10T13:35:07.939Z,23.91
2022-09-10T13:36:18.159Z,23.90
2022-09-10T13:37:25.149Z,23.90
2022-09-10T13:38:53.932Z,23.89
2022-09-10T13:40:29.040Z,23.87
2022-09-10T13:41:37.875Z,23.88
2022-09-10T13:42:53.015Z,23.86
2022-09-10T13:44:36.393Z,23.85
2022-09-10T13:45:49.224Z,23.84
2022-09-10T13:46:54.361Z,23.84
2022-09-10T13:48:02.979Z,23.83
2022-09-10T13:49:26.839Z,23.83
2022-09-10T13:50:37.018Z,23.83
2022-09-10T13:51:51.751Z,23.84
2022-09-10T13:52:55.516Z,23.83
2022-09-10T13:54:01.385Z,23.83
2022-09-10T13:55:05.478Z,23.83
2022-09-10T13:56:14.522Z,23.82
2022-09-10T13:57:29.686Z,23.82
2022-09-10T13:58:38.840Z,23.83
2022-09-10T13:59:41.551Z,23.84
2022-09-10T14:02:01.337Z,23.96
2022-09-10T14:03:07.864Z,23.85
2022-09-10T14:05:56.812Z,23.99
2022-09-10T14:07:05.955Z,23.87
2022-09-10T14:08:26.267Z,23.87
2022-09-10T14:09:28.432Z,23.88
2022-09-10T14:10:35.293Z,23.89
2022-09-10T14:11:38.287Z,23.89
2022-09-10T14:12:41.331Z,23.91
2022-09-10T14:15:06.367Z,24.02
2022-09-10T14:16:11.238Z,23.93
2022-09-10T14:17:19.562Z,23.93
2022-09-10T14:18:23.155Z,23.94
2022-09-10T14:20:42.735Z,24.05
2022-09-10T14:21:49.705Z,23.96
2022-09-10T14:22:53.237Z,23.95
2022-09-10T14:23:56.492Z,23.96
2022-09-10T14:25:01.654Z,23.97
2022-09-10T14:27:33.649Z,24.07
2022-09-10T14:28:39.148Z,23.98
2022-09-10T14:29:41.686Z,23.98
2022-09-10T14:30:46.378Z,23.97
2022-09-10T14:31:48.861Z,23.97
2022-09-10T14:32:51.910Z,23.97
2022-09-10T14:35:42.683Z,24.09
2022-09-10T14:36:46.838Z,23.99
2022-09-10T14:37:50.920Z,23.99
2022-09-10T14:38:58.774Z,23.98
2022-09-10T14:40:03.160Z,23.99
2022-09-10T14:41:27.063Z,24.01
2022-09-10T14:42:33.639Z,24.02
2022-09-10T14:43:37.268Z,24.03
2022-09-10T14:44:40.810Z,24.02
2022-09-10T14:45:45.088Z,24.03
2022-09-10T14:46:56.002Z,24.03
2022-09-10T14:47:58.382Z,24.01
2022-09-10T14:49:02.889Z,24.02
2022-09-10T14:50:27.821Z,24.01
2022-09-10T14:51:30.082Z,24.00
2022-09-10T14:52:32.276Z,23.99
2022-09-10T14:53:34.447Z,23.99
2022-09-10T14:54:36.539Z,23.97
2022-09-10T14:55:38.899Z,23.97
2022-09-10T14:56:42.981Z,23.96
2022-09-10T14:57:47.233Z,23.98
2022-09-10T14:59:04.422Z,23.97
2022-09-10T15:01:22.552Z,24.09
2022-09-10T15:02:26.705Z,23.98
2022-09-10T15:03:34.613Z,24.00
2022-09-10T15:04:37.626Z,23.99
2022-09-10T15:05:40.939Z,23.99
2022-09-10T15:06:44.331Z,24.00
2022-09-10T15:07:46.472Z,24.00
2022-09-10T15:08:49.163Z,24.02
2022-09-10T15:09:52.262Z,24.02
2022-09-10T15:10:54.749Z,24.02
2022-09-10T15:11:59.512Z,24.02
2022-09-10T15:13:02.741Z,24.02
2022-09-10T15:14:09.191Z,24.02
2022-09-10T15:15:17.018Z,24.03
2022-09-10T15:16:19.237Z,24.05
2022-09-10T15:17:23.737Z,24.05
2022-09-10T15:18:25.880Z,24.06
2022-09-10T15:19:29.200Z,24.06
2022-09-10T15:20:31.423Z,24.05
2022-09-10T15:21:33.815Z,24.05
2022-09-10T15:22:36.447Z,24.05
2022-09-10T15:23:40.651Z,24.05
2022-09-10T15:25:08.115Z,24.05